sensor_id;sensor_type;location;lat;lon;timestamp;temperature;humidity
41922;DHT22;27609;51.002;5.354;2023-04-05T00:00:30;3.30;99.90
41922;DHT22;27609;51.002;5.354;2023-04-05T00:02:57;3.20;99.90
41922;DHT22;27609;51.002;5.354;2023-04-05T00:05:25;4.10;99.90
41922;DHT22;27609;51.002;5.354;2023-04-05T00:07:59;3.20;99.90
41922;DHT22;27609;51.002;5.354;2023-04-05T00:10:30;3.10;99.90
41922;DHT22;27609;51.002;5.354;2023-04-05T00:12:57;3.10;99.90
41922;DHT22;27609;51.002;5.354;2023-04-05T00:15:22;3.10;99.90
41922;DHT22;27609;51.002;5.354;2023-04-05T00:17:48;3.00;99.90
41922;DHT22;27609;51.002;5.354;2023-04-05T00:20:15;3.00;99.90
41922;DHT22;27609;51.002;5.354;2023-04-05T00:22:41;2.90;99.90
41922;DHT22;27609;51.002;5.354;2023-04-05T00:25:11;2.90;99.90
41922;DHT22;27609;51.002;5.354;2023-04-05T00:27:38;2.80;99.90
41922;DHT22;27609;51.002;5.354;2023-04-05T00:30:04;2.80;99.90
41922;DHT22;27609;51.002;5.354;2023-04-05T00:32:30;2.80;99.90
41922;DHT22;27609;51.002;5.354;2023-04-05T00:34:56;2.80;99.90
41922;DHT22;27609;51.002;5.354;2023-04-05T00:37:21;2.80;99.90
41922;DHT22;27609;51.002;5.354;2023-04-05T00:39:47;2.70;99.90
41922;DHT22;27609;51.002;5.354;2023-04-05T00:42:13;2.70;99.90
41922;DHT22;27609;51.002;5.354;2023-04-05T00:44:39;2.70;99.90
41922;DHT22;27609;51.002;5.354;2023-04-05T00:47:05;2.70;99.90
41922;DHT22;27609;51.002;5.354;2023-04-05T00:49:33;2.60;99.90
41922;DHT22;27609;51.002;5.354;2023-04-05T00:51:59;2.60;99.90
41922;DHT22;27609;51.002;5.354;2023-04-05T00:54:26;2.60;99.90
41922;DHT22;27609;51.002;5.354;2023-04-05T00:56:56;2.60;99.90
41922;DHT22;27609;51.002;5.354;2023-04-05T00:59:22;2.50;99.90
41922;DHT22;27609;51.002;5.354;2023-04-05T01:02:20;2.50;99.90
41922;DHT22;27609;51.002;5.354;2023-04-05T01:04:58;2.40;99.90
41922;DHT22;27609;51.002;5.354;2023-04-05T01:07:32;2.40;99.90
41922;DHT22;27609;51.002;5.354;2023-04-05T01:10:02;2.40;99.90
41922;DHT22;27609;51.002;5.354;2023-04-05T01:12:33;2.40;99.90
41922;DHT22;27609;51.002;5.354;2023-04-05T01:15:00;2.40;99.90
41922;DHT22;27609;51.002;5.354;2023-04-05T01:17:28;2.40;99.90
41922;DHT22;27609;51.002;5.354;2023-04-05T01:19:58;2.40;99.90
41922;DHT22;27609;51.002;5.354;2023-04-05T01:22:33;2.40;99.90
41922;DHT22;27609;51.002;5.354;2023-04-05T01:25:38;2.30;99.90
41922;DHT22;27609;51.002;5.354;2023-04-05T01:34:19;2.20;99.90
41922;DHT22;27609;51.002;5.354;2023-04-05T01:36:54;2.10;99.90
41922;DHT22;27609;51.002;5.354;2023-04-05T01:39:20;2.20;99.90
41922;DHT22;27609;51.002;5.354;2023-04-05T01:41:47;2.70;99.90
41922;DHT22;27609;51.002;5.354;2023-04-05T01:44:13;2.80;99.90
41922;DHT22;27609;51.002;5.354;2023-04-05T01:46:38;2.80;99.90
41922;DHT22;27609;51.002;5.354;2023-04-05T01:49:04;2.10;99.90
41922;DHT22;27609;51.002;5.354;2023-04-05T01:51:30;2.20;99.90
41922;DHT22;27609;51.002;5.354;2023-04-05T01:53:57;2.10;99.90
41922;DHT22;27609;51.002;5.354;2023-04-05T01:56:22;2.20;99.90
41922;DHT22;27609;51.002;5.354;2023-04-05T01:58:48;2.10;99.90
41922;DHT22;27609;51.002;5.354;2023-04-05T02:01:14;2.10;99.90
41922;DHT22;27609;51.002;5.354;2023-04-05T02:03:39;2.00;99.90
41922;DHT22;27609;51.002;5.354;2023-04-05T02:06:05;2.00;99.90
41922;DHT22;27609;51.002;5.354;2023-04-05T02:08:31;2.00;99.90
41922;DHT22;27609;51.002;5.354;2023-04-05T02:10:57;1.90;99.90
41922;DHT22;27609;51.002;5.354;2023-04-05T02:13:22;2.00;99.90
41922;DHT22;27609;51.002;5.354;2023-04-05T02:15:50;1.80;99.90
41922;DHT22;27609;51.002;5.354;2023-04-05T02:18:16;2.00;99.90
41922;DHT22;27609;51.002;5.354;2023-04-05T02:20:49;2.50;99.90
41922;DHT22;27609;51.002;5.354;2023-04-05T02:23:19;1.80;99.90
41922;DHT22;27609;51.002;5.354;2023-04-05T02:25:45;2.40;99.90
41922;DHT22;27609;51.002;5.354;2023-04-05T02:28:11;1.80;99.90
41922;DHT22;27609;51.002;5.354;2023-04-05T02:30:37;1.80;99.90
41922;DHT22;27609;51.002;5.354;2023-04-05T02:33:02;1.70;99.90
41922;DHT22;27609;51.002;5.354;2023-04-05T02:35:29;1.70;99.90
41922;DHT22;27609;51.002;5.354;2023-04-05T02:37:55;3.00;99.90
41922;DHT22;27609;51.002;5.354;2023-04-05T02:40:21;1.70;99.90
41922;DHT22;27609;51.002;5.354;2023-04-05T02:42:47;1.70;99.90
41922;DHT22;27609;51.002;5.354;2023-04-05T02:45:13;1.60;99.90
41922;DHT22;27609;51.002;5.354;2023-04-05T02:47:38;2.00;99.90
41922;DHT22;27609;51.002;5.354;2023-04-05T02:50:05;1.60;99.90
41922;DHT22;27609;51.002;5.354;2023-04-05T02:52:30;1.50;99.90
41922;DHT22;27609;51.002;5.354;2023-04-05T02:54:56;1.50;99.90
41922;DHT22;27609;51.002;5.354;2023-04-05T02:57:22;1.50;99.90
41922;DHT22;27609;51.002;5.354;2023-04-05T02:59:48;1.60;99.90
41922;DHT22;27609;51.002;5.354;2023-04-05T03:02:14;2.20;99.90
41922;DHT22;27609;51.002;5.354;2023-04-05T03:04:40;1.50;99.90
41922;DHT22;27609;51.002;5.354;2023-04-05T03:07:06;1.60;99.90
41922;DHT22;27609;51.002;5.354;2023-04-05T03:09:32;1.50;99.90
41922;DHT22;27609;51.002;5.354;2023-04-05T03:12:02;1.40;99.90
41922;DHT22;27609;51.002;5.354;2023-04-05T03:14:32;1.40;99.90
41922;DHT22;27609;51.002;5.354;2023-04-05T03:16:58;1.40;99.90
41922;DHT22;27609;51.002;5.354;2023-04-05T03:19:25;2.40;99.90
41922;DHT22;27609;51.002;5.354;2023-04-05T03:21:52;1.40;99.90
41922;DHT22;27609;51.002;5.354;2023-04-05T03:24:18;1.40;99.90
41922;DHT22;27609;51.002;5.354;2023-04-05T03:26:47;1.30;99.90
41922;DHT22;27609;51.002;5.354;2023-04-05T03:29:13;1.40;99.90
41922;DHT22;27609;51.002;5.354;2023-04-05T03:31:40;1.30;99.90
41922;DHT22;27609;51.002;5.354;2023-04-05T03:34:05;1.30;99.90
41922;DHT22;27609;51.002;5.354;2023-04-05T03:36:31;1.30;99.90
41922;DHT22;27609;51.002;5.354;2023-04-05T03:39:11;1.30;99.90
41922;DHT22;27609;51.002;5.354;2023-04-05T03:41:38;1.30;99.90
41922;DHT22;27609;51.002;5.354;2023-04-05T03:44:04;1.90;99.90
41922;DHT22;27609;51.002;5.354;2023-04-05T03:46:30;1.30;99.90
41922;DHT22;27609;51.002;5.354;2023-04-05T03:48:57;1.30;99.90
41922;DHT22;27609;51.002;5.354;2023-04-05T03:51:23;1.40;99.90
41922;DHT22;27609;51.002;5.354;2023-04-05T03:53:52;2.00;99.90
41922;DHT22;27609;51.002;5.354;2023-04-05T03:56:18;1.20;99.90
41922;DHT22;27609;51.002;5.354;2023-04-05T03:58:45;1.60;99.90
41922;DHT22;27609;51.002;5.354;2023-04-05T04:01:11;2.40;99.90
41922;DHT22;27609;51.002;5.354;2023-04-05T04:03:37;1.50;99.90
41922;DHT22;27609;51.002;5.354;2023-04-05T04:06:04;1.20;99.90
41922;DHT22;27609;51.002;5.354;2023-04-05T04:08:30;1.20;99.90
41922;DHT22;27609;51.002;5.354;2023-04-05T04:10:56;1.20;99.90
41922;DHT22;27609;51.002;5.354;2023-04-05T04:13:22;1.00;99.90
41922;DHT22;27609;51.002;5.354;2023-04-05T04:15:48;1.10;99.90
41922;DHT22;27609;51.002;5.354;2023-04-05T04:18:13;1.10;99.90
41922;DHT22;27609;51.002;5.354;2023-04-05T04:20:39;1.10;99.90
41922;DHT22;27609;51.002;5.354;2023-04-05T04:23:05;2.30;99.90
41922;DHT22;27609;51.002;5.354;2023-04-05T04:25:35;1.10;99.90
41922;DHT22;27609;51.002;5.354;2023-04-05T04:28:02;1.10;99.90
41922;DHT22;27609;51.002;5.354;2023-04-05T04:30:28;1.00;99.90
41922;DHT22;27609;51.002;5.354;2023-04-05T04:32:54;1.00;99.90
41922;DHT22;27609;51.002;5.354;2023-04-05T04:35:26;1.00;99.90
41922;DHT22;27609;51.002;5.354;2023-04-05T04:37:54;1.90;99.90
41922;DHT22;27609;51.002;5.354;2023-04-05T04:42:54;0.50;99.90
41922;DHT22;27609;51.002;5.354;2023-04-05T04:45:23;0.50;99.90
41922;DHT22;27609;51.002;5.354;2023-04-05T04:47:49;1.80;99.90
41922;DHT22;27609;51.002;5.354;2023-04-05T04:50:18;1.70;99.90
41922;DHT22;27609;51.002;5.354;2023-04-05T04:52:45;0.80;99.90
41922;DHT22;27609;51.002;5.354;2023-04-05T04:55:11;0.80;99.90
41922;DHT22;27609;51.002;5.354;2023-04-05T04:57:40;1.70;99.90
41922;DHT22;27609;51.002;5.354;2023-04-05T05:00:08;1.50;99.90
41922;DHT22;27609;51.002;5.354;2023-04-05T05:02:41;0.70;99.90
41922;DHT22;27609;51.002;5.354;2023-04-05T05:05:09;0.80;99.90
41922;DHT22;27609;51.002;5.354;2023-04-05T05:07:37;0.80;99.90
41922;DHT22;27609;51.002;5.354;2023-04-05T05:10:03;0.80;99.90
41922;DHT22;27609;51.002;5.354;2023-04-05T05:12:29;0.80;99.90
41922;DHT22;27609;51.002;5.354;2023-04-05T05:14:56;1.70;99.90
41922;DHT22;27609;51.002;5.354;2023-04-05T05:17:22;0.90;99.90
41922;DHT22;27609;51.002;5.354;2023-04-05T05:19:48;0.90;99.90
41922;DHT22;27609;51.002;5.354;2023-04-05T05:22:14;0.90;99.90
41922;DHT22;27609;51.002;5.354;2023-04-05T05:24:40;1.50;99.90
41922;DHT22;27609;51.002;5.354;2023-04-05T05:27:07;1.10;99.90
41922;DHT22;27609;51.002;5.354;2023-04-05T05:29:32;1.10;99.90
41922;DHT22;27609;51.002;5.354;2023-04-05T05:31:58;1.80;99.90
41922;DHT22;27609;51.002;5.354;2023-04-05T05:34:24;1.10;99.90
41922;DHT22;27609;51.002;5.354;2023-04-05T05:36:50;1.10;99.90
41922;DHT22;27609;51.002;5.354;2023-04-05T05:39:19;2.40;99.90
41922;DHT22;27609;51.002;5.354;2023-04-05T05:41:45;1.20;99.90
41922;DHT22;27609;51.002;5.354;2023-04-05T05:44:10;1.50;99.90
41922;DHT22;27609;51.002;5.354;2023-04-05T05:46:36;1.80;99.90
41922;DHT22;27609;51.002;5.354;2023-04-05T05:49:02;1.60;99.90
41922;DHT22;27609;51.002;5.354;2023-04-05T05:51:28;1.80;99.90
41922;DHT22;27609;51.002;5.354;2023-04-05T05:53:53;2.10;99.90
41922;DHT22;27609;51.002;5.354;2023-04-05T05:56:19;2.30;99.90
41922;DHT22;27609;51.002;5.354;2023-04-05T05:58:45;2.20;99.90
41922;DHT22;27609;51.002;5.354;2023-04-05T06:01:11;2.20;99.90
41922;DHT22;27609;51.002;5.354;2023-04-05T06:03:36;2.20;99.90
41922;DHT22;27609;51.002;5.354;2023-04-05T06:06:03;2.50;99.90
41922;DHT22;27609;51.002;5.354;2023-04-05T06:08:30;2.20;99.90
41922;DHT22;27609;51.002;5.354;2023-04-05T06:10:57;2.90;99.90
41922;DHT22;27609;51.002;5.354;2023-04-05T06:13:22;2.60;99.90
41922;DHT22;27609;51.002;5.354;2023-04-05T06:15:49;4.00;99.90
41922;DHT22;27609;51.002;5.354;2023-04-05T06:18:15;3.00;99.90
41922;DHT22;27609;51.002;5.354;2023-04-05T06:20:42;3.20;99.90
41922;DHT22;27609;51.002;5.354;2023-04-05T06:23:12;3.40;99.90
41922;DHT22;27609;51.002;5.354;2023-04-05T06:25:38;3.90;99.90
41922;DHT22;27609;51.002;5.354;2023-04-05T06:28:04;4.50;99.90
41922;DHT22;27609;51.002;5.354;2023-04-05T06:30:31;5.10;99.90
41922;DHT22;27609;51.002;5.354;2023-04-05T06:32:58;5.50;99.90
41922;DHT22;27609;51.002;5.354;2023-04-05T06:35:24;5.60;99.90
41922;DHT22;27609;51.002;5.354;2023-04-05T06:37:50;6.00;99.90
41922;DHT22;27609;51.002;5.354;2023-04-05T06:40:16;6.00;99.90
41922;DHT22;27609;51.002;5.354;2023-04-05T06:42:43;6.40;99.90
41922;DHT22;27609;51.002;5.354;2023-04-05T06:45:09;6.80;99.90
41922;DHT22;27609;51.002;5.354;2023-04-05T06:47:36;7.60;99.90
41922;DHT22;27609;51.002;5.354;2023-04-05T06:50:03;8.40;99.90
41922;DHT22;27609;51.002;5.354;2023-04-05T06:52:29;9.50;99.90
41922;DHT22;27609;51.002;5.354;2023-04-05T06:54:54;10.50;99.90
41922;DHT22;27609;51.002;5.354;2023-04-05T06:57:21;11.40;99.90
41922;DHT22;27609;51.002;5.354;2023-04-05T06:59:47;12.20;99.90
41922;DHT22;27609;51.002;5.354;2023-04-05T07:02:12;12.90;99.90
41922;DHT22;27609;51.002;5.354;2023-04-05T07:04:38;13.60;99.90
41922;DHT22;27609;51.002;5.354;2023-04-05T07:07:06;14.30;99.90
41922;DHT22;27609;51.002;5.354;2023-04-05T07:09:32;14.90;99.90
41922;DHT22;27609;51.002;5.354;2023-04-05T07:12:05;15.70;99.00
41922;DHT22;27609;51.002;5.354;2023-04-05T07:14:36;15.60;98.00
41922;DHT22;27609;51.002;5.354;2023-04-05T07:17:05;14.20;97.80
41922;DHT22;27609;51.002;5.354;2023-04-05T07:19:32;14.10;99.90
41922;DHT22;27609;51.002;5.354;2023-04-05T07:21:58;13.90;99.40
41922;DHT22;27609;51.002;5.354;2023-04-05T07:24:24;14.30;99.50
41922;DHT22;27609;51.002;5.354;2023-04-05T07:26:50;14.50;97.80
41922;DHT22;27609;51.002;5.354;2023-04-05T07:29:16;14.70;98.60
41922;DHT22;27609;51.002;5.354;2023-04-05T07:31:42;15.00;98.00
41922;DHT22;27609;51.002;5.354;2023-04-05T07:34:08;14.60;97.40
41922;DHT22;27609;51.002;5.354;2023-04-05T07:36:34;15.40;98.20
41922;DHT22;27609;51.002;5.354;2023-04-05T07:39:00;16.00;97.40
41922;DHT22;27609;51.002;5.354;2023-04-05T07:41:27;16.90;95.90
41922;DHT22;27609;51.002;5.354;2023-04-05T07:43:56;18.30;94.20
41922;DHT22;27609;51.002;5.354;2023-04-05T07:46:21;17.30;93.50
41922;DHT22;27609;51.002;5.354;2023-04-05T07:48:47;17.80;91.80
41922;DHT22;27609;51.002;5.354;2023-04-05T07:51:13;17.50;92.20
41922;DHT22;27609;51.002;5.354;2023-04-05T07:53:40;16.90;92.90
41922;DHT22;27609;51.002;5.354;2023-04-05T07:56:08;17.50;92.00
41922;DHT22;27609;51.002;5.354;2023-04-05T07:58:35;17.80;91.00
41922;DHT22;27609;51.002;5.354;2023-04-05T08:01:05;18.00;89.60
41922;DHT22;27609;51.002;5.354;2023-04-05T08:03:31;17.70;88.70
41922;DHT22;27609;51.002;5.354;2023-04-05T08:06:12;18.70;88.00
41922;DHT22;27609;51.002;5.354;2023-04-05T08:08:39;17.40;87.40
41922;DHT22;27609;51.002;5.354;2023-04-05T08:11:05;18.30;86.60
41922;DHT22;27609;51.002;5.354;2023-04-05T08:13:31;19.70;82.20
41922;DHT22;27609;51.002;5.354;2023-04-05T08:17:50;20.80;80.80
41922;DHT22;27609;51.002;5.354;2023-04-05T08:20:15;20.80;78.30
41922;DHT22;27609;51.002;5.354;2023-04-05T08:22:41;21.80;75.90
41922;DHT22;27609;51.002;5.354;2023-04-05T08:25:07;22.00;74.60
41922;DHT22;27609;51.002;5.354;2023-04-05T08:27:33;18.90;78.30
41922;DHT22;27609;51.002;5.354;2023-04-05T08:29:59;18.40;79.70
41922;DHT22;27609;51.002;5.354;2023-04-05T08:32:25;18.60;77.70
41922;DHT22;27609;51.002;5.354;2023-04-05T08:34:50;18.10;76.40
41922;DHT22;27609;51.002;5.354;2023-04-05T08:37:16;18.40;75.90
41922;DHT22;27609;51.002;5.354;2023-04-05T08:39:42;21.00;72.00
41922;DHT22;27609;51.002;5.354;2023-04-05T08:42:15;22.50;68.20
41922;DHT22;27609;51.002;5.354;2023-04-05T08:44:43;21.20;69.00
41922;DHT22;27609;51.002;5.354;2023-04-05T08:47:10;20.70;69.40
41922;DHT22;27609;51.002;5.354;2023-04-05T08:49:43;20.60;72.20
41922;DHT22;27609;51.002;5.354;2023-04-05T08:52:09;22.50;68.00
41922;DHT22;27609;51.002;5.354;2023-04-05T08:54:35;24.10;63.40
41922;DHT22;27609;51.002;5.354;2023-04-05T08:57:02;25.30;59.90
41922;DHT22;27609;51.002;5.354;2023-04-05T08:59:31;26.80;57.20
41922;DHT22;27609;51.002;5.354;2023-04-05T09:02:00;28.10;54.60
41922;DHT22;27609;51.002;5.354;2023-04-05T09:04:30;29.00;52.50
41922;DHT22;27609;51.002;5.354;2023-04-05T09:06:57;28.30;51.00
41922;DHT22;27609;51.002;5.354;2023-04-05T09:09:24;26.90;49.30
41922;DHT22;27609;51.002;5.354;2023-04-05T09:11:50;23.60;52.00
41922;DHT22;27609;51.002;5.354;2023-04-05T09:14:16;25.10;51.10
41922;DHT22;27609;51.002;5.354;2023-04-05T09:16:42;24.50;51.00
41922;DHT22;27609;51.002;5.354;2023-04-05T09:19:08;24.70;51.80
41922;DHT22;27609;51.002;5.354;2023-04-05T09:22:06;25.90;50.90
41922;DHT22;27609;51.002;5.354;2023-04-05T09:24:40;26.40;48.90
41922;DHT22;27609;51.002;5.354;2023-04-05T09:27:08;24.10;49.30
41922;DHT22;27609;51.002;5.354;2023-04-05T09:29:35;25.70;49.60
41922;DHT22;27609;51.002;5.354;2023-04-05T09:32:02;24.70;48.70
41922;DHT22;27609;51.002;5.354;2023-04-05T09:34:31;24.80;49.00
41922;DHT22;27609;51.002;5.354;2023-04-05T09:36:58;23.30;51.40
41922;DHT22;27609;51.002;5.354;2023-04-05T09:39:29;25.10;49.30
41922;DHT22;27609;51.002;5.354;2023-04-05T09:42:07;27.00;49.60
41922;DHT22;27609;51.002;5.354;2023-04-05T09:44:51;27.60;47.40
41922;DHT22;27609;51.002;5.354;2023-04-05T09:47:20;28.50;45.70
41922;DHT22;27609;51.002;5.354;2023-04-05T09:49:46;29.90;45.90
41922;DHT22;27609;51.002;5.354;2023-04-05T09:52:26;29.60;44.00
41922;DHT22;27609;51.002;5.354;2023-04-05T09:54:57;27.00;45.90
41922;DHT22;27609;51.002;5.354;2023-04-05T09:57:23;27.10;46.00
41922;DHT22;27609;51.002;5.354;2023-04-05T09:59:52;26.10;47.10
41922;DHT22;27609;51.002;5.354;2023-04-05T10:02:19;27.30;46.40
41922;DHT22;27609;51.002;5.354;2023-04-05T10:04:46;25.70;47.30
41922;DHT22;27609;51.002;5.354;2023-04-05T10:07:17;23.80;49.40
41922;DHT22;27609;51.002;5.354;2023-04-05T10:09:44;23.50;47.90
41922;DHT22;27609;51.002;5.354;2023-04-05T10:12:17;22.90;48.70
41922;DHT22;27609;51.002;5.354;2023-04-05T10:14:45;23.90;47.00
41922;DHT22;27609;51.002;5.354;2023-04-05T10:17:26;20.90;50.00
41922;DHT22;27609;51.002;5.354;2023-04-05T10:28:35;25.70;45.50
41922;DHT22;27609;51.002;5.354;2023-04-05T10:31:24;23.90;48.00
41922;DHT22;27609;51.002;5.354;2023-04-05T10:36:49;28.30;45.40
41922;DHT22;27609;51.002;5.354;2023-04-05T10:39:29;23.50;46.50
41922;DHT22;27609;51.002;5.354;2023-04-05T10:42:10;21.70;49.70
41922;DHT22;27609;51.002;5.354;2023-04-05T10:44:38;24.10;49.30
41922;DHT22;27609;51.002;5.354;2023-04-05T10:47:09;26.60;45.90
41922;DHT22;27609;51.002;5.354;2023-04-05T10:49:48;25.80;45.00
41922;DHT22;27609;51.002;5.354;2023-04-05T10:52:15;26.70;45.90
41922;DHT22;27609;51.002;5.354;2023-04-05T10:54:42;23.40;46.70
41922;DHT22;27609;51.002;5.354;2023-04-05T10:57:09;21.90;47.70
41922;DHT22;27609;51.002;5.354;2023-04-05T10:59:42;20.80;49.90
41922;DHT22;27609;51.002;5.354;2023-04-05T11:02:08;20.30;48.30
41922;DHT22;27609;51.002;5.354;2023-04-05T11:04:35;21.60;47.60
41922;DHT22;27609;51.002;5.354;2023-04-05T11:07:19;20.40;49.90
41922;DHT22;27609;51.002;5.354;2023-04-05T11:10:01;23.50;49.60
41922;DHT22;27609;51.002;5.354;2023-04-05T11:20:46;33.70;40.70
41922;DHT22;27609;51.002;5.354;2023-04-05T11:23:14;33.80;39.00
41922;DHT22;27609;51.002;5.354;2023-04-05T11:25:51;31.30;40.90
41922;DHT22;27609;51.002;5.354;2023-04-05T11:28:28;31.10;40.60
41922;DHT22;27609;51.002;5.354;2023-04-05T11:30:55;28.50;41.90
41922;DHT22;27609;51.002;5.354;2023-04-05T11:33:58;28.10;41.50
41922;DHT22;27609;51.002;5.354;2023-04-05T11:42:09;28.70;40.20
41922;DHT22;27609;51.002;5.354;2023-04-05T11:44:41;27.80;42.50
41922;DHT22;27609;51.002;5.354;2023-04-05T11:47:08;30.40;40.90
41922;DHT22;27609;51.002;5.354;2023-04-05T11:49:36;31.70;40.80
41922;DHT22;27609;51.002;5.354;2023-04-05T11:52:19;32.10;40.50
41922;DHT22;27609;51.002;5.354;2023-04-05T11:54:45;33.80;40.70
41922;DHT22;27609;51.002;5.354;2023-04-05T11:57:18;35.30;39.70
41922;DHT22;27609;51.002;5.354;2023-04-05T11:59:45;34.10;39.30
41922;DHT22;27609;51.002;5.354;2023-04-05T12:02:11;34.20;38.70
41922;DHT22;27609;51.002;5.354;2023-04-05T12:04:37;33.60;38.30
41922;DHT22;27609;51.002;5.354;2023-04-05T12:07:17;32.00;37.60
41922;DHT22;27609;51.002;5.354;2023-04-05T12:12:43;28.00;39.80
41922;DHT22;27609;51.002;5.354;2023-04-05T12:15:14;28.70;40.70
41922;DHT22;27609;51.002;5.354;2023-04-05T12:17:47;30.20;41.50
41922;DHT22;27609;51.002;5.354;2023-04-05T12:20:19;30.00;40.10
41922;DHT22;27609;51.002;5.354;2023-04-05T12:22:47;30.60;40.00
41922;DHT22;27609;51.002;5.354;2023-04-05T12:25:15;32.60;39.20
41922;DHT22;27609;51.002;5.354;2023-04-05T12:27:41;31.50;38.20
41922;DHT22;27609;51.002;5.354;2023-04-05T12:30:08;32.10;38.40
41922;DHT22;27609;51.002;5.354;2023-04-05T12:32:52;27.90;39.70
41922;DHT22;27609;51.002;5.354;2023-04-05T12:35:31;25.50;41.90
41922;DHT22;27609;51.002;5.354;2023-04-05T12:38:03;22.60;44.70
41922;DHT22;27609;51.002;5.354;2023-04-05T12:40:31;24.90;42.60
41922;DHT22;27609;51.002;5.354;2023-04-05T12:43:05;27.50;41.10
41922;DHT22;27609;51.002;5.354;2023-04-05T12:45:32;23.50;42.60
41922;DHT22;27609;51.002;5.354;2023-04-05T12:48:13;21.70;45.20
41922;DHT22;27609;51.002;5.354;2023-04-05T12:50:44;22.60;44.50
41922;DHT22;27609;51.002;5.354;2023-04-05T12:53:17;25.70;41.40
41922;DHT22;27609;51.002;5.354;2023-04-05T12:55:51;25.70;41.40
41922;DHT22;27609;51.002;5.354;2023-04-05T12:58:21;23.60;43.60
41922;DHT22;27609;51.002;5.354;2023-04-05T13:00:47;26.10;43.70
41922;DHT22;27609;51.002;5.354;2023-04-05T13:03:18;27.10;40.90
41922;DHT22;27609;51.002;5.354;2023-04-05T13:05:47;27.50;42.50
41922;DHT22;27609;51.002;5.354;2023-04-05T13:08:14;27.60;41.20
41922;DHT22;27609;51.002;5.354;2023-04-05T13:10:40;26.30;41.90
41922;DHT22;27609;51.002;5.354;2023-04-05T13:13:05;27.70;41.80
41922;DHT22;27609;51.002;5.354;2023-04-05T13:15:31;29.60;42.40
41922;DHT22;27609;51.002;5.354;2023-04-05T13:17:57;29.70;40.60
41922;DHT22;27609;51.002;5.354;2023-04-05T13:20:23;29.90;41.40
41922;DHT22;27609;51.002;5.354;2023-04-05T13:22:49;27.20;40.90
41922;DHT22;27609;51.002;5.354;2023-04-05T13:25:15;27.90;40.00
41922;DHT22;27609;51.002;5.354;2023-04-05T13:27:41;25.40;40.90
41922;DHT22;27609;51.002;5.354;2023-04-05T13:30:08;23.10;44.40
41922;DHT22;27609;51.002;5.354;2023-04-05T13:32:34;23.70;42.90
41922;DHT22;27609;51.002;5.354;2023-04-05T13:35:00;23.10;43.70
41922;DHT22;27609;51.002;5.354;2023-04-05T13:37:26;22.90;45.90
41922;DHT22;27609;51.002;5.354;2023-04-05T13:39:51;21.80;45.70
41922;DHT22;27609;51.002;5.354;2023-04-05T13:42:17;21.30;45.40
41922;DHT22;27609;51.002;5.354;2023-04-05T13:44:43;19.40;48.10
41922;DHT22;27609;51.002;5.354;2023-04-05T13:47:09;18.80;48.50
41922;DHT22;27609;51.002;5.354;2023-04-05T13:49:34;20.30;48.60
41922;DHT22;27609;51.002;5.354;2023-04-05T13:52:00;21.90;49.10
41922;DHT22;27609;51.002;5.354;2023-04-05T13:54:26;23.60;45.90
41922;DHT22;27609;51.002;5.354;2023-04-05T13:56:51;24.70;44.10
41922;DHT22;27609;51.002;5.354;2023-04-05T13:59:17;25.90;43.70
41922;DHT22;27609;51.002;5.354;2023-04-05T14:01:47;25.40;43.70
41922;DHT22;27609;51.002;5.354;2023-04-05T14:04:14;25.10;44.70
41922;DHT22;27609;51.002;5.354;2023-04-05T14:06:40;25.40;43.30
41922;DHT22;27609;51.002;5.354;2023-04-05T14:09:06;25.40;44.60
41922;DHT22;27609;51.002;5.354;2023-04-05T14:11:33;25.70;44.60
41922;DHT22;27609;51.002;5.354;2023-04-05T14:13:59;26.00;42.80
41922;DHT22;27609;51.002;5.354;2023-04-05T14:16:24;26.00;42.60
41922;DHT22;27609;51.002;5.354;2023-04-05T14:18:50;25.80;43.90
41922;DHT22;27609;51.002;5.354;2023-04-05T14:21:16;24.60;41.90
41922;DHT22;27609;51.002;5.354;2023-04-05T14:23:42;23.70;44.30
41922;DHT22;27609;51.002;5.354;2023-04-05T14:26:08;24.10;45.90
41922;DHT22;27609;51.002;5.354;2023-04-05T14:28:33;24.90;46.00
41922;DHT22;27609;51.002;5.354;2023-04-05T14:30:59;24.50;44.60
41922;DHT22;27609;51.002;5.354;2023-04-05T14:33:25;24.10;44.90
41922;DHT22;27609;51.002;5.354;2023-04-05T14:35:54;24.10;44.10
41922;DHT22;27609;51.002;5.354;2023-04-05T14:38:20;24.00;45.90
41922;DHT22;27609;51.002;5.354;2023-04-05T14:40:46;24.40;46.50
41922;DHT22;27609;51.002;5.354;2023-04-05T14:43:12;24.50;44.80
41922;DHT22;27609;51.002;5.354;2023-04-05T14:45:37;24.50;43.60
41922;DHT22;27609;51.002;5.354;2023-04-05T14:48:03;24.70;44.80
41922;DHT22;27609;51.002;5.354;2023-04-05T14:50:29;24.60;44.20
41922;DHT22;27609;51.002;5.354;2023-04-05T14:52:58;24.00;45.60
41922;DHT22;27609;51.002;5.354;2023-04-05T14:55:26;23.20;46.00
41922;DHT22;27609;51.002;5.354;2023-04-05T14:57:51;23.00;46.80
41922;DHT22;27609;51.002;5.354;2023-04-05T15:00:17;22.40;44.80
41922;DHT22;27609;51.002;5.354;2023-04-05T15:02:44;21.20;46.50
41922;DHT22;27609;51.002;5.354;2023-04-05T15:05:10;20.20;46.90
41922;DHT22;27609;51.002;5.354;2023-04-05T15:07:35;20.40;49.30
41922;DHT22;27609;51.002;5.354;2023-04-05T15:10:02;20.50;48.60
41922;DHT22;27609;51.002;5.354;2023-04-05T15:12:27;20.90;48.60
41922;DHT22;27609;51.002;5.354;2023-04-05T15:14:53;20.90;47.40
41922;DHT22;27609;51.002;5.354;2023-04-05T15:17:19;20.90;48.00
41922;DHT22;27609;51.002;5.354;2023-04-05T15:19:45;20.20;47.10
41922;DHT22;27609;51.002;5.354;2023-04-05T15:22:12;20.00;48.50
41922;DHT22;27609;51.002;5.354;2023-04-05T15:24:38;20.00;48.20
41922;DHT22;27609;51.002;5.354;2023-04-05T15:27:08;20.00;49.00
41922;DHT22;27609;51.002;5.354;2023-04-05T15:29:33;20.20;50.60
41922;DHT22;27609;51.002;5.354;2023-04-05T15:31:59;20.30;50.30
41922;DHT22;27609;51.002;5.354;2023-04-05T15:34:26;20.40;49.40
41922;DHT22;27609;51.002;5.354;2023-04-05T15:36:52;20.30;49.90
41922;DHT22;27609;51.002;5.354;2023-04-05T15:39:19;20.00;47.60
41922;DHT22;27609;51.002;5.354;2023-04-05T15:41:45;19.80;48.80
41922;DHT22;27609;51.002;5.354;2023-04-05T15:44:12;19.50;51.00
41922;DHT22;27609;51.002;5.354;2023-04-05T15:46:37;19.40;50.00
41922;DHT22;27609;51.002;5.354;2023-04-05T15:49:03;19.30;49.50
41922;DHT22;27609;51.002;5.354;2023-04-05T15:51:29;19.20;50.50
41922;DHT22;27609;51.002;5.354;2023-04-05T15:53:55;19.00;51.10
41922;DHT22;27609;51.002;5.354;2023-04-05T15:56:21;18.80;50.00
41922;DHT22;27609;51.002;5.354;2023-04-05T15:58:47;18.00;48.60
41922;DHT22;27609;51.002;5.354;2023-04-05T16:01:13;17.40;48.70
41922;DHT22;27609;51.002;5.354;2023-04-05T16:03:39;17.00;50.50
41922;DHT22;27609;51.002;5.354;2023-04-05T16:06:05;16.80;50.50
41922;DHT22;27609;51.002;5.354;2023-04-05T16:08:30;16.30;51.00
41922;DHT22;27609;51.002;5.354;2023-04-05T16:10:56;16.40;51.50
41922;DHT22;27609;51.002;5.354;2023-04-05T16:13:22;16.30;50.10
41922;DHT22;27609;51.002;5.354;2023-04-05T16:15:48;16.20;51.00
41922;DHT22;27609;51.002;5.354;2023-04-05T16:18:14;16.00;50.30
41922;DHT22;27609;51.002;5.354;2023-04-05T16:20:44;15.80;52.60